Terminal Aerodrome Forecast
Issued by NWS

Home | Current Version | Previous Version | Text Only | Print | Product List | Glossary On
Versions: 1 2 3 4 5 6 7 8 9 10 11 12 13 14
345
FTUS45 KABQ 202340
TAFSAF
TAF
KSAF 202340Z 2100/2124 15011KT P6SM VCSH SCT050 OVC090
      TEMPO 2100/2103 VRB15G25KT -SHRA SCT030 BKN050
     FM210500 14011KT 6SM -SHRA SCT020 OVC035
     FM210800 VRB06KT P6SM VCSH SCT020 BKN035
     FM211800 23011KT P6SM VCSH SCT040 BKN070=

USA.gov is the U.S. government's official web portal to all federal, state and local government web resources and services.